createdAt,value
2019-03-13T00:04:27.194Z,10.20
2019-03-13T00:09:12.988Z,10.40
2019-03-13T00:13:58.705Z,10.40
2019-03-13T00:18:44.379Z,10.30
2019-03-13T00:23:30.220Z,10.20
2019-03-13T00:28:15.997Z,10.40
2019-03-13T00:33:01.799Z,10.20
2019-03-13T00:37:47.586Z,10.30
2019-03-13T00:42:33.281Z,10.30
2019-03-13T00:47:18.941Z,10.20
2019-03-13T00:52:04.706Z,10.30
2019-03-13T00:56:50.410Z,10.40
2019-03-13T01:01:56.272Z,10.30
2019-03-13T01:06:44.458Z,10.50
2019-03-13T01:11:30.198Z,10.30
2019-03-13T01:16:15.845Z,9.90
2019-03-13T01:21:01.558Z,9.80
2019-03-13T01:25:47.180Z,10.00
2019-03-13T01:30:42.711Z,10.10
2019-03-13T01:35:47.345Z,10.40
2019-03-13T01:40:33.084Z,10.60
2019-03-13T01:45:19.059Z,10.70
2019-03-13T01:50:05.087Z,10.70
2019-03-13T01:54:50.880Z,10.70
2019-03-13T01:59:36.509Z,10.60
2019-03-13T02:04:22.261Z,10.50
2019-03-13T02:09:09.011Z,9.60
2019-03-13T02:13:54.784Z,9.00
2019-03-13T02:18:40.450Z,8.30
2019-03-13T02:23:26.207Z,7.50
2019-03-13T02:28:11.868Z,7.10
2019-03-13T02:32:57.659Z,7.10
2019-03-13T02:37:43.358Z,6.90
2019-03-13T02:42:29.056Z,6.70
2019-03-13T02:47:18.709Z,6.40
2019-03-13T02:52:02.116Z,6.30
2019-03-13T02:56:47.815Z,6.20
2019-03-13T03:01:52.412Z,6.20
2019-03-13T03:06:38.697Z,6.20
2019-03-13T03:11:24.524Z,6.20
2019-03-13T03:16:10.232Z,6.20
2019-03-13T03:20:55.987Z,6.10
2019-03-13T03:25:41.696Z,6.10
2019-03-13T03:30:28.012Z,6.00
2019-03-13T03:35:13.727Z,5.90
2019-03-13T03:39:59.609Z,5.70
2019-03-13T03:44:45.322Z,5.70
2019-03-13T03:49:30.969Z,5.80
2019-03-13T03:54:16.670Z,5.80
2019-03-13T03:59:02.450Z,5.90
2019-03-13T04:03:48.153Z,5.90
2019-03-13T04:08:37.587Z,5.80
2019-03-13T04:13:21.676Z,5.80
2019-03-13T04:18:07.446Z,5.80
2019-03-13T04:22:53.141Z,5.50
2019-03-13T04:27:39.051Z,5.50
2019-03-13T04:32:24.932Z,5.70
2019-03-13T04:37:11.591Z,5.60
2019-03-13T04:41:57.334Z,5.70
2019-03-13T04:46:43.054Z,5.60
2019-03-13T04:51:28.821Z,5.50
2019-03-13T04:56:14.558Z,5.40
2019-03-13T05:01:00.233Z,5.40
2019-03-13T05:05:57.286Z,5.40
2019-03-13T05:10:43.176Z,5.30
2019-03-13T05:15:28.964Z,5.20
2019-03-13T05:20:14.779Z,5.50
2019-03-13T05:25:00.581Z,5.60
2019-03-13T05:29:46.745Z,5.70
2019-03-13T05:34:32.636Z,5.60
2019-03-13T05:39:18.541Z,5.50
2019-03-13T05:44:04.623Z,5.40
2019-03-13T05:48:50.359Z,5.40
2019-03-13T05:53:36.354Z,5.70
2019-03-13T05:58:22.030Z,5.80
2019-03-13T06:03:07.829Z,5.80
2019-03-13T06:07:53.696Z,6.10
2019-03-13T06:12:39.420Z,5.90
2019-03-13T06:17:25.145Z,5.80
2019-03-13T06:22:10.875Z,5.70
2019-03-13T06:26:56.713Z,5.80
2019-03-13T06:31:42.527Z,5.80
2019-03-13T06:36:28.492Z,5.80
2019-03-13T06:41:14.223Z,5.80
2019-03-13T06:46:00.072Z,5.70
2019-03-13T06:50:45.759Z,5.70
2019-03-13T06:55:33.170Z,5.80
2019-03-13T07:00:38.077Z,5.80
2019-03-13T07:05:42.636Z,5.90
2019-03-13T07:10:35.042Z,5.90
2019-03-13T07:15:45.543Z,6.00
2019-03-13T07:20:55.926Z,6.30
2019-03-13T07:26:06.518Z,6.40
2019-03-13T07:31:27.379Z,6.80
2019-03-13T07:36:35.958Z,7.00
2019-03-13T07:41:39.034Z,6.80
2019-03-13T07:46:43.635Z,6.60
2019-03-13T07:51:47.166Z,6.60
2019-03-13T07:56:46.431Z,6.60
2019-03-13T08:01:56.204Z,6.60
2019-03-13T08:07:11.813Z,6.80
2019-03-13T08:12:15.849Z,6.70
2019-03-13T08:17:24.044Z,7.20
2019-03-13T08:22:34.726Z,7.60
2019-03-13T08:27:41.542Z,6.80
2019-03-13T08:32:46.264Z,7.20
2019-03-13T08:37:53.910Z,7.40
2019-03-13T08:43:02.296Z,7.50
2019-03-13T08:47:59.275Z,7.90
2019-03-13T08:53:04.109Z,8.60
2019-03-13T08:58:11.516Z,9.20
2019-03-13T09:03:18.921Z,9.80
2019-03-13T09:08:34.400Z,10.60
2019-03-13T09:13:39.150Z,10.80
2019-03-13T09:18:32.392Z,10.40
2019-03-13T09:23:40.431Z,10.20
2019-03-13T09:28:48.073Z,11.00
2019-03-13T09:33:46.144Z,10.60
2019-03-13T09:38:39.821Z,9.40
2019-03-13T09:43:35.682Z,9.90
2019-03-13T09:48:41.992Z,10.40
2019-03-13T09:53:49.403Z,9.90
2019-03-13T09:58:56.925Z,9.40
2019-03-13T10:04:02.745Z,10.00
2019-03-13T10:08:59.905Z,10.40
2019-03-13T10:14:05.032Z,10.30
2019-03-13T10:19:19.430Z,10.70
2019-03-13T10:24:24.271Z,10.40
2019-03-13T10:29:15.009Z,9.70
2019-03-13T10:34:19.904Z,7.70
2019-03-13T10:39:30.759Z,7.40
2019-03-13T10:44:27.706Z,7.20
2019-03-13T10:49:37.935Z,7.80
2019-03-13T10:54:46.274Z,9.30
2019-03-13T10:59:48.232Z,12.00
2019-03-13T11:04:56.322Z,11.70
2019-03-13T11:10:07.707Z,9.40
2019-03-13T11:15:01.766Z,10.20
2019-03-13T11:20:10.882Z,10.20
2019-03-13T11:25:23.265Z,10.40
2019-03-13T11:30:43.983Z,9.30
2019-03-13T11:35:39.499Z,8.60
2019-03-13T11:40:49.122Z,10.00
2019-03-13T11:46:00.772Z,8.80
2019-03-13T11:51:17.734Z,9.40
2019-03-13T11:56:15.157Z,9.10
2019-03-13T12:01:26.077Z,8.60
2019-03-13T12:11:33.026Z,8.40
2019-03-13T12:16:37.594Z,8.40
2019-03-13T12:21:42.205Z,8.90
2019-03-13T12:26:56.086Z,9.40
2019-03-13T12:32:03.664Z,9.90
2019-03-13T12:37:11.486Z,10.10
2019-03-13T12:42:15.291Z,9.80
2019-03-13T12:47:19.894Z,9.70
2019-03-13T12:52:25.620Z,9.10
2019-03-13T12:57:52.216Z,8.40
2019-03-13T13:02:54.924Z,8.10
2019-03-13T13:08:02.985Z,9.60
2019-03-13T13:13:06.068Z,9.20
2019-03-13T13:18:28.941Z,8.00
2019-03-13T13:23:14.778Z,6.80
2019-03-13T13:28:00.806Z,8.80
2019-03-13T13:32:46.753Z,11.00
2019-03-13T13:37:32.544Z,9.20
2019-03-13T13:42:18.332Z,13.30
2019-03-13T13:47:04.356Z,17.30
2019-03-13T13:52:02.356Z,18.40
2019-03-13T13:56:51.646Z,20.80
2019-03-13T14:01:37.503Z,21.40
2019-03-13T14:06:23.382Z,16.20
2019-03-13T14:11:09.243Z,12.30
2019-03-13T14:15:55.248Z,14.60
2019-03-13T14:20:41.366Z,16.00
2019-03-13T14:25:27.103Z,17.70
2019-03-13T14:30:13.449Z,16.80
2019-03-13T14:34:59.220Z,19.30
2019-03-13T14:39:44.999Z,21.10
2019-03-13T14:44:30.793Z,15.50
2019-03-13T14:49:16.621Z,11.90
2019-03-13T14:54:02.770Z,12.20
2019-03-13T14:58:48.438Z,13.30
2019-03-13T15:03:34.356Z,11.00
2019-03-13T15:08:20.163Z,10.00
2019-03-13T15:13:05.947Z,9.60
2019-03-13T15:17:53.586Z,9.40
2019-03-13T15:22:39.734Z,9.40
2019-03-13T15:27:25.923Z,8.90
2019-03-13T15:32:12.114Z,7.60
2019-03-13T15:36:58.025Z,6.80
2019-03-13T15:41:44.761Z,6.70
2019-03-13T15:46:32.795Z,8.40
2019-03-13T15:51:18.631Z,9.60
2019-03-13T15:56:04.564Z,9.30
2019-03-13T16:00:50.842Z,9.10
2019-03-13T16:05:36.787Z,8.40
2019-03-13T16:10:22.959Z,9.00
2019-03-13T16:15:11.507Z,9.40
2019-03-13T16:19:57.468Z,9.90
2019-03-13T16:24:43.475Z,9.60
2019-03-13T16:29:30.874Z,9.20
2019-03-13T16:34:16.910Z,8.70
2019-03-13T16:39:02.905Z,7.70
2019-03-13T16:43:49.043Z,7.50
2019-03-13T16:48:35.053Z,7.50
2019-03-13T16:53:21.125Z,7.40
2019-03-13T16:58:07.324Z,7.40
2019-03-13T17:02:53.967Z,7.40
2019-03-13T17:07:39.924Z,6.10
2019-03-13T17:12:25.990Z,4.20
2019-03-13T17:17:12.148Z,3.70
2019-03-13T17:21:58.602Z,3.90
2019-03-13T17:26:44.967Z,4.00
2019-03-13T17:31:31.965Z,4.00
2019-03-13T17:36:18.162Z,4.20
2019-03-13T17:41:04.849Z,4.10
2019-03-13T17:45:51.184Z,4.10
2019-03-13T17:50:37.364Z,4.50
2019-03-13T17:55:23.768Z,4.60
2019-03-13T18:00:22.502Z,4.40
2019-03-13T18:05:09.176Z,4.80
2019-03-13T18:09:55.485Z,5.40
2019-03-13T18:14:42.443Z,5.30
2019-03-13T18:19:28.621Z,5.20
2019-03-13T18:24:14.575Z,5.10
2019-03-13T18:29:00.595Z,5.10
2019-03-13T18:33:46.624Z,5.10
2019-03-13T18:38:32.647Z,5.40
2019-03-13T18:43:18.533Z,5.30
2019-03-13T18:48:04.445Z,5.10
2019-03-13T18:52:50.487Z,4.90
2019-03-13T18:57:38.322Z,4.70
2019-03-13T19:02:24.790Z,4.80
2019-03-13T19:07:10.840Z,4.80
2019-03-13T19:11:56.803Z,4.90
2019-03-13T19:16:42.954Z,4.90
2019-03-13T19:21:29.118Z,4.70
2019-03-13T19:26:18.060Z,4.70
2019-03-13T19:31:04.731Z,5.00
2019-03-13T19:35:51.071Z,5.20
2019-03-13T19:40:37.277Z,5.00
2019-03-13T19:45:26.324Z,5.00
2019-03-13T19:50:13.067Z,4.90
2019-03-13T19:55:02.675Z,5.10
2019-03-13T19:59:49.104Z,5.80
2019-03-13T20:04:46.864Z,5.90
2019-03-13T20:09:24.134Z,6.00
2019-03-13T20:14:10.463Z,6.00
2019-03-13T20:18:56.997Z,6.00
2019-03-13T20:23:43.853Z,6.00
2019-03-13T20:28:30.330Z,6.00
2019-03-13T20:33:17.095Z,6.20
2019-03-13T20:38:03.288Z,6.30
2019-03-13T20:42:50.220Z,6.30
2019-03-13T20:47:36.553Z,6.20
2019-03-13T20:52:23.048Z,6.20
2019-03-13T20:57:09.565Z,6.20
2019-03-13T21:01:56.307Z,5.90
2019-03-13T21:06:42.607Z,6.00
2019-03-13T21:11:29.013Z,5.80
2019-03-13T21:16:15.713Z,5.70
2019-03-13T21:21:02.403Z,5.60
2019-03-13T21:25:49.311Z,5.60
2019-03-13T21:30:36.174Z,5.70
2019-03-13T21:35:22.992Z,5.50
2019-03-13T21:40:09.563Z,5.40
2019-03-13T21:44:56.159Z,5.20
2019-03-13T21:49:42.120Z,5.00
2019-03-13T21:54:28.136Z,4.90
2019-03-13T21:59:14.363Z,4.80
2019-03-13T22:04:00.417Z,4.70
2019-03-13T22:08:46.405Z,4.60
2019-03-13T22:13:32.406Z,4.40
2019-03-13T22:18:18.564Z,4.40
2019-03-13T22:23:04.618Z,4.10
2019-03-13T22:27:50.768Z,3.80
2019-03-13T22:32:36.862Z,3.70
2019-03-13T22:37:22.693Z,3.60
2019-03-13T22:42:08.871Z,3.70
2019-03-13T22:46:54.648Z,3.70
2019-03-13T22:51:40.791Z,3.50
2019-03-13T22:56:27.694Z,3.30
2019-03-13T23:01:16.555Z,3.30
2019-03-13T23:06:03.124Z,3.20
2019-03-13T23:10:49.391Z,3.10
2019-03-13T23:15:35.413Z,3.10
2019-03-13T23:20:21.177Z,3.00
2019-03-13T23:25:07.150Z,3.00
2019-03-13T23:29:52.954Z,2.80
2019-03-13T23:34:38.688Z,2.70
2019-03-13T23:39:24.366Z,2.90
2019-03-13T23:44:10.129Z,2.90
2019-03-13T23:48:55.945Z,3.00
2019-03-13T23:53:41.619Z,2.80
2019-03-13T23:58:27.415Z,3.30
